createdAt,value
2022-10-05T00:02:19.475Z,100997.75
2022-10-05T00:04:50.098Z,100998.45
2022-10-05T00:07:20.490Z,100999.00
2022-10-05T00:09:58.804Z,100996.31
2022-10-05T00:13:24.156Z,100996.84
2022-10-05T00:16:21.375Z,100996.73
2022-10-05T00:18:51.910Z,101001.33
2022-10-05T00:21:24.665Z,100998.43
2022-10-05T00:24:15.665Z,100995.08
2022-10-05T00:27:21.440Z,100993.56
2022-10-05T00:29:51.972Z,100985.83
2022-10-05T00:32:21.100Z,100978.96
2022-10-05T00:34:49.332Z,100976.71
2022-10-05T00:37:19.255Z,100978.73
2022-10-05T00:39:49.737Z,100979.79
2022-10-05T00:42:39.602Z,100975.45
2022-10-05T00:45:36.629Z,100984.75
2022-10-05T00:48:32.868Z,100989.17
2022-10-05T00:51:28.434Z,100993.10
2022-10-05T00:54:01.254Z,100995.44
2022-10-05T00:56:40.123Z,100996.55
2022-10-05T00:59:40.188Z,100995.32
2022-10-05T01:02:39.339Z,100997.34
2022-10-05T01:06:09.683Z,100994.51
2022-10-05T01:09:23.404Z,100985.60
2022-10-05T01:12:15.520Z,100984.52
2022-10-05T01:14:53.979Z,100989.89
2022-10-05T01:17:44.895Z,100990.25
2022-10-05T01:20:39.733Z,100993.59
2022-10-05T01:23:28.644Z,100998.91
2022-10-05T01:26:42.215Z,100995.58
2022-10-05T01:29:23.208Z,100991.31
2022-10-05T01:32:20.430Z,100991.11
2022-10-05T01:34:59.048Z,100988.52
2022-10-05T01:37:31.292Z,100988.73
2022-10-05T01:40:01.914Z,100982.92
2022-10-05T01:42:35.773Z,100983.00
2022-10-05T01:45:06.609Z,100975.90
2022-10-05T01:47:48.158Z,100971.58
2022-10-05T01:50:35.333Z,100976.74
2022-10-05T01:53:24.721Z,100994.46
2022-10-05T01:56:30.626Z,101003.93
2022-10-05T01:59:30.675Z,101000.55
2022-10-05T02:02:04.284Z,100998.46
2022-10-05T02:05:00.863Z,101000.94
2022-10-05T02:07:36.656Z,101001.54
2022-10-05T02:10:50.165Z,100998.37
2022-10-05T02:13:48.874Z,100985.60
2022-10-05T02:16:39.498Z,100978.58
2022-10-05T02:19:42.336Z,100972.98
2022-10-05T02:22:30.665Z,100971.81
2022-10-05T02:25:21.422Z,100963.38
2022-10-05T02:28:19.360Z,100948.31
2022-10-05T02:31:01.560Z,100934.62
2022-10-05T02:33:33.582Z,100929.64
2022-10-05T02:36:18.190Z,100935.34
2022-10-05T02:38:49.564Z,100942.19
2022-10-05T02:41:36.752Z,100948.23
2022-10-05T02:44:14.501Z,100951.88
2022-10-05T02:47:04.111Z,100940.85
2022-10-05T02:50:00.588Z,100938.16
2022-10-05T02:52:44.599Z,100943.48
2022-10-05T02:55:13.752Z,100955.17
2022-10-05T02:57:53.181Z,100959.95
2022-10-05T03:00:39.434Z,100948.64
2022-10-05T03:03:29.906Z,100944.42
2022-10-05T03:06:22.567Z,100964.10
2022-10-05T03:09:06.526Z,100968.16
2022-10-05T03:12:00.610Z,100974.23
2022-10-05T03:14:37.498Z,100975.30
2022-10-05T03:17:16.295Z,100972.66
2022-10-05T03:19:54.316Z,100968.56
2022-10-05T03:23:00.019Z,100967.16
2022-10-05T03:26:09.762Z,100975.27
2022-10-05T03:28:55.406Z,100981.11
2022-10-05T03:31:31.723Z,100984.10
2022-10-05T03:34:10.342Z,100980.02
2022-10-05T03:36:53.085Z,100978.09
2022-10-05T03:39:34.447Z,100975.08
2022-10-05T03:42:35.143Z,100971.14
2022-10-05T03:45:50.965Z,100966.16
2022-10-05T03:48:51.005Z,100949.98
2022-10-05T03:51:45.463Z,100952.27
2022-10-05T03:54:44.985Z,100951.23
2022-10-05T03:57:37.600Z,100958.32
2022-10-05T04:00:12.986Z,100960.14
2022-10-05T04:03:04.585Z,100954.31
2022-10-05T04:06:02.522Z,100951.80
2022-10-05T04:08:48.207Z,100946.56
2022-10-05T04:11:26.689Z,100939.27
2022-10-05T04:14:05.221Z,100939.40
2022-10-05T04:16:42.980Z,100939.08
2022-10-05T04:19:39.572Z,100939.33
2022-10-05T04:22:37.407Z,100945.58
2022-10-05T04:25:32.401Z,100949.41
2022-10-05T04:28:18.890Z,100949.07
2022-10-05T04:30:51.298Z,100954.65
2022-10-05T04:33:21.285Z,100955.31
2022-10-05T04:36:26.761Z,100957.41
2022-10-05T04:38:58.091Z,100961.64
2022-10-05T04:41:53.574Z,100965.12
2022-10-05T04:44:39.534Z,100964.34
2022-10-05T04:47:51.495Z,100970.33
2022-10-05T04:50:47.740Z,100969.68
2022-10-05T04:53:36.187Z,100962.27
2022-10-05T04:56:07.316Z,100962.55
2022-10-05T04:59:13.157Z,100961.38
2022-10-05T05:02:17.376Z,100961.48
2022-10-05T05:05:20.954Z,100965.05
2022-10-05T05:08:06.906Z,100970.17
2022-10-05T05:11:20.060Z,100976.15
2022-10-05T05:14:19.746Z,100974.73
2022-10-05T05:17:01.672Z,100978.95
2022-10-05T05:20:35.013Z,100984.90
2022-10-05T05:23:36.150Z,100982.96
2022-10-05T05:26:15.163Z,100977.16
2022-10-05T05:29:39.230Z,100980.08
2022-10-05T05:32:35.393Z,100978.96
2022-10-05T05:35:14.951Z,100978.15
2022-10-05T05:38:21.161Z,100975.39
2022-10-05T05:41:09.909Z,100979.48
2022-10-05T05:44:02.648Z,100970.77
2022-10-05T05:47:44.620Z,100964.02
2022-10-05T05:50:38.604Z,100966.47
2022-10-05T05:53:07.541Z,100977.23
2022-10-05T05:56:04.648Z,100976.48
2022-10-05T05:58:39.667Z,100975.58
2022-10-05T06:01:31.813Z,100980.12
2022-10-05T06:04:28.756Z,100978.46
2022-10-05T06:07:03.421Z,100982.15
2022-10-05T06:09:42.015Z,100979.30
2022-10-05T06:12:37.664Z,100975.21
2022-10-05T06:15:44.703Z,100977.13
2022-10-05T06:18:16.886Z,100977.84
2022-10-05T06:21:28.594Z,100983.45
2022-10-05T06:24:17.051Z,100979.30
2022-10-05T06:26:58.532Z,100966.96
2022-10-05T06:30:14.134Z,100962.45
2022-10-05T06:32:55.184Z,100961.39
2022-10-05T06:35:42.866Z,100968.36
2022-10-05T06:38:23.336Z,100973.24
2022-10-05T06:41:03.794Z,100960.54
2022-10-05T06:43:44.119Z,100960.39
2022-10-05T06:46:44.890Z,100969.95
2022-10-05T06:49:37.206Z,100977.52
2022-10-05T06:52:40.495Z,100983.95
2022-10-05T06:55:39.626Z,100987.01
2022-10-05T06:59:16.802Z,100989.98
2022-10-05T07:01:51.847Z,100989.00
2022-10-05T07:04:48.934Z,100985.58
2022-10-05T07:07:45.896Z,100990.26
2022-10-05T07:10:32.666Z,100980.60
2022-10-05T07:13:38.789Z,100970.92
2022-10-05T07:17:00.496Z,100971.08
2022-10-05T07:20:14.560Z,100971.55
2022-10-05T07:23:07.022Z,100966.39
2022-10-05T07:25:58.777Z,100963.00
2022-10-05T07:28:43.610Z,100966.81
2022-10-05T07:31:28.369Z,100972.95
2022-10-05T07:34:30.967Z,100971.06
2022-10-05T07:37:50.477Z,100966.95
2022-10-05T07:40:53.159Z,100961.35
2022-10-05T07:44:02.169Z,100963.13
2022-10-05T07:47:25.290Z,100955.32
2022-10-05T07:49:58.090Z,100958.33
2022-10-05T07:52:39.904Z,100955.97
2022-10-05T07:55:21.810Z,100953.13
2022-10-05T07:58:15.766Z,100947.16
2022-10-05T08:01:04.865Z,100950.94
2022-10-05T08:03:56.870Z,100947.56
2022-10-05T08:06:49.190Z,100948.81
2022-10-05T08:09:39.027Z,100949.66
2022-10-05T08:12:26.535Z,100953.42
2022-10-05T08:15:03.815Z,100944.42
2022-10-05T08:17:57.054Z,100938.71
2022-10-05T08:20:52.090Z,100933.38
2022-10-05T08:23:31.098Z,100927.14
2022-10-05T08:26:10.882Z,100928.59
2022-10-05T08:28:47.168Z,100928.20
2022-10-05T08:31:23.560Z,100924.66
2022-10-05T08:33:59.895Z,100921.17
2022-10-05T08:36:55.915Z,100916.79
2022-10-05T08:40:09.960Z,100918.66
2022-10-05T08:43:05.541Z,100927.95
2022-10-05T08:46:22.701Z,100926.88
2022-10-05T08:49:40.046Z,100929.95
2022-10-05T08:52:38.930Z,100933.61
2022-10-05T08:55:34.676Z,100928.39
2022-10-05T08:58:37.909Z,100927.23
2022-10-05T09:01:23.129Z,100926.65
2022-10-05T09:04:14.216Z,100917.75
2022-10-05T09:07:01.697Z,100912.77
2022-10-05T09:09:50.099Z,100908.69
2022-10-05T09:13:06.081Z,100906.64
2022-10-05T09:15:58.373Z,100896.91
2022-10-05T09:18:28.487Z,100895.02
2022-10-05T09:21:07.253Z,100892.63
2022-10-05T09:24:03.485Z,100881.07
2022-10-05T09:27:06.812Z,100883.92
2022-10-05T09:29:46.506Z,100880.33
2022-10-05T09:32:47.092Z,100880.41
2022-10-05T09:35:34.637Z,100874.46
2022-10-05T09:38:24.884Z,100874.69
2022-10-05T09:41:21.720Z,100873.73
2022-10-05T09:44:23.628Z,100879.44
2022-10-05T09:47:04.789Z,100875.44
2022-10-05T09:50:00.475Z,100879.73
2022-10-05T09:53:05.259Z,100883.57
2022-10-05T09:59:23.736Z,100888.08
2022-10-05T10:02:14.567Z,100882.52
2022-10-05T10:05:10.111Z,100878.45
2022-10-05T10:08:14.963Z,100881.64
2022-10-05T10:11:16.361Z,100891.15
2022-10-05T10:14:20.102Z,100896.39
2022-10-05T10:17:07.003Z,100901.04
2022-10-05T10:20:22.701Z,100896.21
2022-10-05T10:22:59.274Z,100900.20
2022-10-05T10:26:03.021Z,100906.70
2022-10-05T10:28:52.792Z,100907.67
2022-10-05T10:31:26.704Z,100900.58
2022-10-05T10:34:20.581Z,100894.65
2022-10-05T10:37:11.148Z,100891.05
2022-10-05T10:40:17.718Z,100882.04
2022-10-05T10:43:22.366Z,100869.46
2022-10-05T10:46:20.967Z,100866.72
2022-10-05T10:48:50.361Z,100865.85
2022-10-05T10:51:56.776Z,100859.95
2022-10-05T10:55:05.196Z,100847.51
2022-10-05T10:58:02.345Z,100844.89
2022-10-05T11:00:54.712Z,100835.04
2022-10-05T11:03:54.211Z,100834.54
2022-10-05T11:07:02.151Z,100841.11
2022-10-05T11:09:59.381Z,100837.28
2022-10-05T11:12:48.756Z,100828.75
2022-10-05T11:15:28.515Z,100831.38
2022-10-05T11:18:20.493Z,100832.14
2022-10-05T11:21:10.246Z,100828.29
2022-10-05T11:23:56.864Z,100831.38
2022-10-05T11:26:35.442Z,100836.48
2022-10-05T11:29:40.409Z,100835.64
2022-10-05T11:32:26.738Z,100833.38
2022-10-05T11:35:06.296Z,100831.10
2022-10-05T11:37:53.760Z,100826.69
2022-10-05T11:40:43.578Z,100823.81
2022-10-05T11:43:42.326Z,100826.89
2022-10-05T11:46:35.252Z,100825.70
2022-10-05T11:49:29.181Z,100821.95
2022-10-05T11:52:14.062Z,100814.55
2022-10-05T11:55:13.488Z,100820.89
2022-10-05T11:58:07.705Z,100827.40
2022-10-05T12:01:18.053Z,100823.30
2022-10-05T12:04:17.416Z,100823.97
2022-10-05T12:07:18.754Z,100823.02
2022-10-05T12:10:17.501Z,100823.64
2022-10-05T12:13:12.242Z,100825.31
2022-10-05T12:15:48.189Z,100821.89
2022-10-05T12:18:29.711Z,100825.33
2022-10-05T12:21:07.596Z,100827.08
2022-10-05T12:23:52.453Z,100822.89
2022-10-05T12:26:26.221Z,100822.98
2022-10-05T12:29:12.202Z,100821.55
2022-10-05T12:32:03.406Z,100816.38
2022-10-05T12:34:48.691Z,100818.17
2022-10-05T12:37:46.734Z,100816.23
2022-10-05T12:40:54.938Z,100816.92
2022-10-05T12:43:34.347Z,100819.16
2022-10-05T12:46:11.849Z,100817.99
2022-10-05T12:49:11.011Z,100817.23
2022-10-05T12:52:06.511Z,100824.62
2022-10-05T12:54:42.130Z,100817.71
2022-10-05T12:57:21.477Z,100814.85
2022-10-05T12:59:57.378Z,100815.85
2022-10-05T13:02:25.087Z,100818.39
2022-10-05T13:05:08.997Z,100816.67
2022-10-05T13:07:48.847Z,100814.13
2022-10-05T13:10:41.300Z,100813.33
2022-10-05T13:13:14.791Z,100813.02
2022-10-05T13:15:47.027Z,100809.50
2022-10-05T13:18:33.975Z,100813.36
2022-10-05T13:21:27.429Z,100809.31
2022-10-05T13:24:18.893Z,100814.23
2022-10-05T13:27:05.199Z,100810.03
2022-10-05T13:29:40.446Z,100806.55
2022-10-05T13:32:24.058Z,100807.14
2022-10-05T13:34:57.953Z,100805.90
2022-10-05T13:38:00.340Z,100799.56
2022-10-05T13:40:39.212Z,100802.90
2022-10-05T13:43:13.364Z,100803.73
2022-10-05T13:45:57.106Z,100805.15
2022-10-05T13:48:52.649Z,100804.73
2022-10-05T13:51:28.116Z,100809.17
2022-10-05T13:54:11.284Z,100809.48
2022-10-05T13:56:44.791Z,100816.06
2022-10-05T13:59:35.340Z,100814.19
2022-10-05T14:02:11.049Z,100802.25
2022-10-05T14:04:47.099Z,100798.59
2022-10-05T14:07:32.196Z,100796.25
2022-10-05T14:10:03.208Z,100793.81
2022-10-05T14:12:40.462Z,100788.89
2022-10-05T14:15:42.081Z,100782.30
2022-10-05T14:18:28.265Z,100776.20
2022-10-05T14:21:11.380Z,100778.73
2022-10-05T14:23:39.432Z,100777.25
2022-10-05T14:26:40.241Z,100777.70
2022-10-05T14:29:19.425Z,100773.84
2022-10-05T14:31:53.981Z,100767.08
2022-10-05T14:34:36.692Z,100771.84
2022-10-05T14:37:18.734Z,100775.06
2022-10-05T14:39:49.625Z,100770.61
2022-10-05T14:42:46.257Z,100772.77
2022-10-05T14:45:19.606Z,100773.52
2022-10-05T14:47:56.323Z,100768.48
2022-10-05T14:50:29.581Z,100771.14
2022-10-05T15:08:39.254Z,100771.83
2022-10-05T15:11:12.925Z,100769.51
2022-10-05T15:13:48.653Z,100762.16
2022-10-05T15:16:34.229Z,100760.17
2022-10-05T15:19:27.076Z,100756.70
2022-10-05T15:22:04.420Z,100753.32
2022-10-05T15:24:43.617Z,100754.07
2022-10-05T15:28:01.583Z,100751.11
2022-10-05T15:30:31.611Z,100750.05
2022-10-05T15:33:04.463Z,100751.02
2022-10-05T15:35:38.373Z,100753.64
2022-10-05T15:38:25.761Z,100747.62
2022-10-05T15:41:12.700Z,100743.76
2022-10-05T15:44:14.724Z,100743.65
2022-10-05T15:46:44.262Z,100738.24
2022-10-05T15:49:21.184Z,100738.48
2022-10-05T15:52:07.531Z,100737.38
2022-10-05T15:54:57.369Z,100741.33
2022-10-05T15:57:47.530Z,100750.32
2022-10-05T16:00:23.104Z,100754.77
2022-10-05T16:03:21.650Z,100744.61
2022-10-05T16:06:50.041Z,100743.31
2022-10-05T16:09:41.203Z,100755.38
2022-10-05T16:12:21.291Z,100749.36
2022-10-05T16:15:19.065Z,100742.56
2022-10-05T16:17:59.750Z,100735.00
2022-10-05T16:20:50.183Z,100719.07
2022-10-05T16:23:20.651Z,100726.96
2022-10-05T16:26:03.873Z,100724.04
2022-10-05T16:28:41.472Z,100702.23
2022-10-05T16:31:44.064Z,100716.21
2022-10-05T16:34:45.297Z,100724.77
2022-10-05T16:37:28.281Z,100715.98
2022-10-05T16:40:01.146Z,100716.83
2022-10-05T16:42:41.482Z,100716.88
2022-10-05T16:45:33.257Z,100709.48
2022-10-05T16:48:18.382Z,100711.61
2022-10-05T16:50:55.162Z,100713.60
2022-10-05T16:53:43.999Z,100713.79
2022-10-05T16:56:18.204Z,100716.20
2022-10-05T16:59:06.753Z,100712.89
2022-10-05T17:01:56.669Z,100708.65
2022-10-05T17:04:45.112Z,100714.93
2022-10-05T17:07:21.617Z,100712.73
2022-10-05T17:10:07.029Z,100711.08
2022-10-05T17:12:45.587Z,100717.92
2022-10-05T17:15:37.460Z,100715.61
2022-10-05T17:18:17.076Z,100719.95
2022-10-05T17:21:21.488Z,100720.03
2022-10-05T17:24:01.116Z,100720.28
2022-10-05T17:26:33.871Z,100724.66
2022-10-05T17:29:25.312Z,100720.17
2022-10-05T17:32:10.405Z,100722.13
2022-10-05T17:35:00.683Z,100719.72
2022-10-05T17:37:36.323Z,100714.70
2022-10-05T17:40:29.739Z,100704.55
2022-10-05T17:43:01.377Z,100705.84
2022-10-05T17:45:32.012Z,100707.02
2022-10-05T17:48:10.087Z,100706.73
2022-10-05T17:51:02.952Z,100710.70
2022-10-05T17:54:12.555Z,100704.99
2022-10-05T17:56:50.223Z,100705.68
2022-10-05T17:59:38.758Z,100701.59
2022-10-05T18:02:39.934Z,100699.79
2022-10-05T18:05:12.935Z,100700.44
2022-10-05T18:07:48.826Z,100701.20
2022-10-05T18:10:29.055Z,100703.02
2022-10-05T18:13:00.030Z,100701.02
2022-10-05T18:15:27.722Z,100703.48
2022-10-05T18:18:20.931Z,100702.21
2022-10-05T18:21:13.920Z,100701.69
2022-10-05T18:23:52.951Z,100702.09
2022-10-05T18:26:59.799Z,100697.21
2022-10-05T18:29:56.584Z,100695.95
2022-10-05T18:32:55.155Z,100694.27
2022-10-05T18:36:08.495Z,100695.05
2022-10-05T18:39:12.813Z,100695.80
2022-10-05T18:41:53.135Z,100694.73
2022-10-05T18:44:47.192Z,100692.90
2022-10-05T18:47:30.675Z,100692.67
2022-10-05T18:50:36.118Z,100695.77
2022-10-05T18:53:19.140Z,100695.46
2022-10-05T18:56:18.537Z,100700.45
2022-10-05T18:58:56.541Z,100699.55
2022-10-05T19:01:47.219Z,100698.33
2022-10-05T19:04:54.181Z,100693.85
2022-10-05T19:07:43.576Z,100693.91
2022-10-05T19:10:45.020Z,100687.36
2022-10-05T19:13:35.085Z,100691.03
2022-10-05T19:16:35.197Z,100687.34
2022-10-05T19:19:37.346Z,100688.40
2022-10-05T19:22:14.221Z,100689.14
2022-10-05T19:24:52.088Z,100686.61
2022-10-05T19:27:44.688Z,100684.89
2022-10-05T19:30:19.823Z,100690.11
2022-10-05T19:33:20.308Z,100684.31
2022-10-05T19:36:18.495Z,100684.31
2022-10-05T19:39:04.372Z,100685.44
2022-10-05T19:41:52.210Z,100682.43
2022-10-05T19:44:48.406Z,100688.02
2022-10-05T19:47:46.823Z,100691.15
2022-10-05T19:50:18.411Z,100692.64
2022-10-05T19:52:51.093Z,100698.85
2022-10-05T19:55:22.517Z,100699.94
2022-10-05T19:57:53.233Z,100701.58
2022-10-05T20:00:28.467Z,100699.30
2022-10-05T20:03:40.704Z,100698.61
2022-10-05T20:06:11.504Z,100699.15
2022-10-05T20:09:19.346Z,100697.98
2022-10-05T20:11:54.957Z,100701.73
2022-10-05T20:15:01.953Z,100703.68
2022-10-05T20:17:49.569Z,100706.04
2022-10-05T20:20:35.386Z,100707.23
2022-10-05T20:23:44.576Z,100706.88
2022-10-05T20:27:00.133Z,100711.16
2022-10-05T20:29:30.313Z,100712.70
2022-10-05T20:31:58.595Z,100711.42
2022-10-05T20:35:08.315Z,100711.10
2022-10-05T20:37:51.234Z,100714.06
2022-10-05T20:40:39.576Z,100714.17
2022-10-05T20:43:28.236Z,100715.08
2022-10-05T20:46:19.797Z,100715.84
2022-10-05T20:49:10.795Z,100716.42
2022-10-05T20:51:40.287Z,100711.72
2022-10-05T20:54:10.028Z,100711.27
2022-10-05T20:56:58.028Z,100715.55
2022-10-05T20:59:28.201Z,100723.31
2022-10-05T21:01:56.284Z,100722.98
2022-10-05T21:05:02.167Z,100718.52
2022-10-05T21:07:58.097Z,100724.69
2022-10-05T21:10:46.191Z,100721.45
2022-10-05T21:13:14.488Z,100722.88
2022-10-05T21:16:00.866Z,100726.50
2022-10-05T21:18:33.551Z,100729.19
2022-10-05T21:21:04.180Z,100731.80
2022-10-05T21:23:32.687Z,100734.59
2022-10-05T21:26:17.169Z,100732.56
2022-10-05T21:29:12.513Z,100736.61
2022-10-05T21:31:41.204Z,100738.38
2022-10-05T21:34:09.236Z,100742.46
2022-10-05T21:36:36.971Z,100742.23
2022-10-05T21:39:05.892Z,100743.49
2022-10-05T21:41:34.588Z,100746.29
2022-10-05T21:44:02.782Z,100744.36
2022-10-05T21:46:31.611Z,100748.61
2022-10-05T21:49:01.630Z,100748.01
2022-10-05T21:51:31.356Z,100748.52
2022-10-05T21:54:06.152Z,100747.83
2022-10-05T21:56:39.132Z,100750.42
2022-10-05T21:59:35.225Z,100753.85
2022-10-05T22:02:26.980Z,100756.52
2022-10-05T22:05:13.250Z,100759.89
2022-10-05T22:07:41.363Z,100753.42
2022-10-05T22:10:09.881Z,100753.40
2022-10-05T22:12:37.720Z,100752.48
2022-10-05T22:15:25.844Z,100754.95
2022-10-05T22:18:15.664Z,100753.01
2022-10-05T22:20:45.411Z,100750.98
2022-10-05T22:23:13.691Z,100750.40
2022-10-05T22:25:42.498Z,100747.24
2022-10-05T22:28:33.012Z,100745.48
2022-10-05T22:31:03.779Z,100745.93
2022-10-05T22:33:33.680Z,100746.60
2022-10-05T22:36:13.188Z,100745.34
2022-10-05T22:38:47.612Z,100745.02
2022-10-05T22:41:18.993Z,100744.71
2022-10-05T22:43:50.288Z,100744.14
2022-10-05T22:46:18.793Z,100745.09
2022-10-05T22:48:49.015Z,100748.71
2022-10-05T22:51:17.187Z,100748.27
2022-10-05T22:53:44.894Z,100750.87
2022-10-05T22:56:13.825Z,100752.33
2022-10-05T22:58:44.811Z,100753.88
2022-10-05T23:01:20.934Z,100757.48
2022-10-05T23:03:56.052Z,100756.42
2022-10-05T23:06:27.760Z,100758.69
2022-10-05T23:08:56.604Z,100756.13
2022-10-05T23:11:26.912Z,100759.09
2022-10-05T23:14:16.567Z,100758.31
2022-10-05T23:16:46.188Z,100760.27
2022-10-05T23:19:34.904Z,100762.39
2022-10-05T23:22:02.729Z,100766.80
2022-10-05T23:24:31.020Z,100768.92
2022-10-05T23:27:39.279Z,100773.77
2022-10-05T23:30:09.659Z,100777.55
2022-10-05T23:32:43.865Z,100772.85
2022-10-05T23:35:33.309Z,100772.97
2022-10-05T23:38:01.698Z,100775.27
2022-10-05T23:40:29.515Z,100770.84
2022-10-05T23:42:57.317Z,100770.98
2022-10-05T23:45:29.050Z,100769.77
2022-10-05T23:47:56.784Z,100772.13
2022-10-05T23:50:48.383Z,100771.86
2022-10-05T23:53:39.840Z,100767.48
2022-10-05T23:56:07.672Z,100772.40
2022-10-05T23:58:56.008Z,100766.23
